Main page
METAR-TAF:

METAR-TAF

Airports :

Gorgan Airport

Gorgan, Iran

latitude: 36-49N, longitude: 054-28E, elevation: 155 m

Current weather observation

The report was made 27 minutes ago, at 04:00 UTC
Wind 4 kt from the East
Temperature 8°C
Humidity 93%
Pressure 1019 hPa
Visibility 10 km or more
Few clouds at a height of 2000 ft
Scattered clouds at a height of 3000 ft
Broken clouds at a height of 9000 ft

METAR: OING 210400Z 09004KT 9999 FEW020 SCT030 BKN090 08/07 Q1019

Time: 07:57 (04:27 UTC)


TAF: missing

Weather observations and forecasts of more than 4000 airports (METAR and TAF reports).

The available stations are represented by yellow and red dots on the map.

Hover mouse over dot to see the name of the station.

Then click to see weather observations and forecasts.

To change the map : click on the green buttons with a black cross to zoom in, on the green button with a dash to zoom out, or on the green arrows for adjacent maps.


METAR-TAF: